FYWHHKNW

Guest
Details From FYWH - Windhoek Hosea Kutako Intl
To HKNW - Nairobi Wilson
Flight Number -
Tags Generated
Created
Modified
Stats Distance 1,700 nm / 3,149 km
Max Altitude 0 ft / 0 m
Waypoints 3
Social Downloads 0
Likes 0
Share VATSIM

Download

Looking for another format? Having issues loading an existing format? Contact us
Advertisement - Login to hide

Notes

Generated

Route

FYWH NV012 HKNW

ID Type Via Altitude Latitude Longitude Leg Dist Tot Dist Heading (true) Name
O FYWH APT - 0 ft / 0 m -22.47768˚ 17.46905˚ - 0 nm - Windhoek Hosea Kutako Intl
NV012 FIX - 0 ft / 0 m -1.41518˚ 36.79064˚ 1694 nm 1694 nm 44° / 40° -
O HKNW APT - 0 ft / 0 m -1.32485˚ 36.80633˚ 5 nm 1700 nm 10° / 10° NAIROBI WILSON

Altitude Profile

Advertisement - Login to hide

Weather


0- 5 10 15 20 25 30 35+ Temperature / ° C

Clouds and Precipitation
Forecast for 2017-12-17 18:00 UTC. Updated 42 minutes ago

Ground ~20,000 ft ~40,000 ft Winds

FYWH

Details ICAO FYWH
Name Windhoek Hosea Kutako Intl
Region Namibia
Timezone Africa/Windhoek (UTC+2.0)
Stats Elevation 5,640 ft / 1,719 m (AMSL)
Location -22.481811° 17.471569°
Runways 2
Magnetic Variation 12.005° W

METAR

FYWH 171600Z 04005KT 9999 -RA FEW035CB BKN090 19/14 Q1021 RERA

Decode

TAF

Not found

Departure Runways

ID Width Length Bearing (true) Bearing (mag) Surface Threshold Offset Overrun Length
08 148 ft / 45 m 15,003 ft / 4,573 m 63.51° 75.52° Asphalt 0 ft / 0 m 345 ft / 105 m
16 98 ft / 30 m 5,010 ft / 1,527 m 141.33° 153.34° Asphalt 0 ft / 0 m 38 ft / 12 m
26 148 ft / 45 m 15,003 ft / 4,573 m 243.49° 255.50° Asphalt 0 ft / 0 m 84 ft / 26 m
34 98 ft / 30 m 5,010 ft / 1,527 m 321.32° 333.33° Asphalt 0 ft / 0 m 38 ft / 12 m

HKNW

Details ICAO HKNW (WIL)
Name NAIROBI WILSON
Region Kenya
Timezone Africa/Nairobi (UTC+3.0)
Stats Elevation 5,546 ft / 1,690 m (AMSL)
Location -1.323145° 36.814695°
Runways 2
Magnetic Variation 0.595° E

METAR

HKNW 171500Z 06015KT 9999 SCT027 25/12 Q1018

Decode

TAF

Not found

Destination Runways

ID Width Length Bearing (true) Bearing (mag) Surface Threshold Offset Overrun Length
07 72 ft / 22 m 4,799 ft / 1,463 m 69.77° 69.17° Asphalt 0 ft / 0 m 0 ft / 0 m
14 76 ft / 23 m 5,065 ft / 1,544 m 134.15° 133.55° Asphalt 0 ft / 0 m 0 ft / 0 m
25 72 ft / 22 m 4,799 ft / 1,463 m 249.77° 249.17° Asphalt 0 ft / 0 m 0 ft / 0 m
32 76 ft / 23 m 5,065 ft / 1,544 m 314.15° 313.55° Asphalt 0 ft / 0 m 0 ft / 0 m